Time;durP1;ratioP1;P1;durP2;ratioP2;P2;SDS_P1;SDS_P2;PMS_P1;PMS_P2;Temp;Humidity;BMP_temperature;BMP_pressure;BME280_temperature;BME280_humidity;BME280_pressure;Samples;Min_cycle;Max_cycle;Signal;HPM_P1;HPM_P2
2022/09/26 00:01:13;;;;;;;8.63;5.80;;;;;;;14.87;51.89;98372.25;5057810;28;20113;-72
2022/09/26 00:03:38;;;;;;;10.45;6.10;;;;;;;14.72;52.30;98371.75;5074722;28;20131;-73
2022/09/26 00:06:06;;;;;;;10.95;5.93;;;;;;;14.85;52.33;98371.66;5091157;28;20139;-73
2022/09/26 00:08:33;;;;;;;11.40;6.80;;;;;;;14.84;52.31;98377.22;5058172;28;20052;-73
2022/09/26 00:11:00;;;;;;;10.40;6.63;;;;;;;14.83;52.51;98372.91;5057985;28;20044;-72
2022/09/26 00:13:30;;;;;;;12.48;6.88;;;;;;;14.92;52.29;98377.78;5074749;28;20036;-72
2022/09/26 00:15:56;;;;;;;12.80;7.47;;;;;;;14.53;53.04;98337.94;5091294;28;20036;-72
2022/09/26 00:18:22;;;;;;;11.20;6.65;;;;;;;14.58;53.18;98364.84;5074600;28;20051;-74
2022/09/26 00:20:48;;;;;;;10.07;7.25;;;;;;;14.53;53.77;98379.88;5057395;28;20056;-73
2022/09/26 00:23:14;;;;;;;14.25;7.85;;;;;;;14.58;54.01;98369.34;5057711;28;20071;-73
2022/09/26 00:25:50;;;;;;;10.57;7.55;;;;;;;14.74;53.84;98371.53;5074099;28;20063;-74
2022/09/26 00:28:17;;;;;;;15.20;8.07;;;;;;;14.63;54.06;98386.41;5091031;28;20040;-74
2022/09/26 00:30:43;;;;;;;12.73;8.05;;;;;;;14.51;53.97;98377.41;5077456;28;20068;-73
2022/09/26 00:33:12;;;;;;;11.73;8.07;;;;;;;14.63;53.79;98377.56;5078592;28;20152;-74
2022/09/26 00:35:38;;;;;;;15.80;7.70;;;;;;;14.36;53.78;98376.84;5061286;28;20040;-72
2022/09/26 00:38:04;;;;;;;14.05;7.85;;;;;;;14.37;53.87;98381.19;5094764;28;20058;-73
2022/09/26 00:40:31;;;;;;;13.48;8.82;;;;;;;14.48;53.88;98374.34;5043295;28;20044;-72
2022/09/26 00:42:57;;;;;;;13.02;8.75;;;;;;;14.46;53.90;98382.56;5077051;28;20131;-71
2022/09/26 00:45:26;;;;;;;11.88;7.90;;;;;;;14.58;53.81;98385.38;5078058;28;20044;-72
2022/09/26 00:48:04;;;;;;;13.27;8.57;;;;;;;14.65;53.84;98391.53;5060971;28;20458;-73
2022/09/26 00:50:40;;;;;;;13.52;8.23;;;;;;;14.69;53.74;98392.72;5077671;28;20078;-72
2022/09/26 00:53:23;;;;;;;15.82;8.55;;;;;;;14.68;53.86;98383.06;5077840;28;20051;-73
2022/09/26 00:55:56;;;;;;;11.68;8.23;;;;;;;14.48;54.21;98363.66;5094813;28;20105;-73
2022/09/26 00:58:30;;;;;;;13.23;8.52;;;;;;;14.60;54.57;98394.00;5061827;28;20052;-73
2022/09/26 01:00:56;;;;;;;14.43;8.65;;;;;;;14.44;54.70;98397.16;5077707;28;20131;-74
2022/09/26 01:03:23;;;;;;;14.00;9.05;;;;;;;14.45;54.81;98380.13;5094575;28;20071;-74
2022/09/26 01:05:49;;;;;;;19.17;9.38;;;;;;;14.37;54.89;98393.72;5094842;28;20036;-74
2022/09/26 01:08:18;;;;;;;15.02;8.70;;;;;;;14.52;54.65;98395.09;5078697;28;20043;-75
2022/09/26 01:10:44;;;;;;;18.35;9.20;;;;;;;14.37;54.64;98391.88;5061856;28;20378;-74
2022/09/26 01:13:10;;;;;;;16.20;9.00;;;;;;;14.39;54.57;98384.44;5095392;28;20105;-74
2022/09/26 01:15:36;;;;;;;13.98;9.82;;;;;;;14.35;54.77;98391.25;5077405;28;20130;-74
2022/09/26 01:18:04;;;;;;;18.90;9.55;;;;;;;14.46;54.70;98381.75;5094537;28;20036;-73
2022/09/26 01:20:53;;;;;;;13.77;8.73;;;;;;;14.73;54.21;98389.41;5076980;28;20126;-77
2022/09/26 01:23:43;;;;;;;18.55;9.23;;;;;;;14.59;54.17;98389.72;5062889;28;20040;-78
2022/09/26 01:26:18;;;;;;;14.70;8.90;;;;;;;14.62;54.31;98391.97;5079574;28;20102;-78
2022/09/26 01:29:08;;;;;;;15.40;9.90;;;;;;;14.64;54.00;98392.53;5094010;28;20386;-77
2022/09/26 01:34:51;;;;;;;12.90;9.18;;;;;;;14.46;53.97;98374.56;5094216;28;20159;-72
2022/09/26 01:37:48;;;;;;;12.63;8.52;;;;;;;14.56;53.81;98398.16;5060789;28;20466;-73
2022/09/26 01:40:28;;;;;;;17.25;9.40;;;;;;;14.49;54.18;98400.03;5094064;28;20048;-72
2022/09/26 01:43:25;;;;;;;15.10;8.82;;;;;;;14.54;53.99;98402.88;5060094;28;20055;-72
2022/09/26 01:46:03;;;;;;;13.50;8.75;;;;;;;14.53;54.30;98411.94;5077104;28;20496;-72
2022/09/26 01:48:43;;;;;;;16.13;9.05;;;;;;;14.48;54.00;98403.75;5077210;28;20048;-72
2022/09/26 01:51:34;;;;;;;13.35;8.95;;;;;;;14.35;53.97;98393.91;5060055;28;20097;-73
2022/09/26 01:54:08;;;;;;;13.18;8.32;;;;;;;14.47;54.26;98423.44;5046164;28;20040;-73
2022/09/26 01:56:36;;;;;;;14.38;8.73;;;;;;;14.22;54.31;98393.94;5043588;28;20512;-73
2022/09/26 01:59:27;;;;;;;15.13;8.90;;;;;;;14.48;54.12;98419.75;5060405;28;20485;-72
2022/09/26 02:02:06;;;;;;;13.10;8.45;;;;;;;14.49;54.21;98421.41;5060675;28;20052;-73
2022/09/26 02:04:36;;;;;;;16.83;8.88;;;;;;;14.44;54.31;98418.53;5076589;28;20044;-72
2022/09/26 02:07:13;;;;;;;20.08;12.50;;;;;;;14.52;53.92;98423.63;5043650;28;20032;-72
2022/09/26 02:09:40;;;;;;;16.50;9.13;;;;;;;14.25;54.20;98422.13;5059626;28;20059;-72
2022/09/26 02:12:12;;;;;;;13.23;8.55;;;;;;;14.43;53.87;98422.25;5076556;28;20106;-73
2022/09/26 02:14:40;;;;;;;13.93;8.18;;;;;;;14.40;54.15;98422.66;5059633;28;20550;-72
2022/09/26 02:17:17;;;;;;;18.58;8.73;;;;;;;14.56;53.86;98432.88;5076231;28;20470;-71
2022/09/26 02:19:59;;;;;;;12.73;7.85;;;;;;;14.26;54.13;98421.91;5059619;28;20051;-73
2022/09/26 02:22:28;;;;;;;12.05;8.38;;;;;;;14.46;53.88;98430.66;5060107;28;20044;-74
2022/09/26 02:24:54;;;;;;;13.50;8.63;;;;;;;14.20;53.89;98422.72;5059972;28;20085;-72
2022/09/26 02:27:20;;;;;;;15.43;10.23;;;;;;;14.13;54.15;98418.44;5076459;28;20047;-72
2022/09/26 02:29:46;;;;;;;12.63;8.90;;;;;;;14.16;54.43;98437.50;5076031;28;20478;-72
2022/09/26 02:32:17;;;;;;;12.98;8.35;;;;;;;14.40;54.30;98434.19;5060044;28;20089;-72
2022/09/26 02:34:45;;;;;;;11.63;8.40;;;;;;;14.17;54.24;98406.28;5076062;28;20040;-72
2022/09/26 02:37:13;;;;;;;16.50;9.25;;;;;;;14.27;54.30;98442.22;5042372;28;20040;-72
2022/09/26 02:39:41;;;;;;;12.43;8.02;;;;;;;14.19;54.01;98421.06;5043479;28;20039;-73
2022/09/26 02:42:20;;;;;;;15.07;8.05;;;;;;;14.41;53.69;98445.66;5076873;28;20100;-72
2022/09/26 02:45:26;;;;;;;10.98;8.07;;;;;;;14.39;53.74;98447.75;5042079;28;20040;-72
2022/09/26 02:48:04;;;;;;;11.07;8.13;;;;;;;14.39;53.62;98447.75;5092053;28;20044;-72
2022/09/26 02:50:39;;;;;;;12.32;8.77;;;;;;;14.02;54.00;98446.59;5059041;28;20439;-73
2022/09/26 02:53:09;;;;;;;17.75;12.73;;;;;;;13.94;54.05;98451.31;5060548;28;20036;-73
2022/09/26 02:55:46;;;;;;;12.65;8.98;;;;;;;13.77;54.43;98426.09;5092622;28;20538;-73
2022/09/26 02:58:21;;;;;;;14.65;9.75;;;;;;;14.21;54.15;98453.72;5076234;28;20044;-72
2022/09/26 03:01:09;;;;;;;12.98;9.25;;;;;;;14.23;53.87;98440.97;5091998;28;20079;-73
2022/09/26 03:03:54;;;;;;;14.52;8.95;;;;;;;14.25;53.68;98448.81;5092388;28;20042;-72
2022/09/26 03:06:25;;;;;;;11.82;9.15;;;;;;;14.16;53.88;98447.38;5074969;28;20105;-72
2022/09/26 03:08:51;;;;;;;;;;;;;;;14.30;53.66;98449.00;5075483;28;20036;-72
2022/09/26 03:11:23;;;;;;;17.20;9.55;;;;;;;14.15;53.80;98446.53;5058399;28;19924;-73
2022/09/26 03:13:52;;;;;;;13.13;9.38;;;;;;;14.00;54.45;98440.63;5042912;28;20040;-72
2022/09/26 03:16:21;;;;;;;16.55;10.35;;;;;;;14.06;54.37;98450.47;5059479;28;20044;-73
2022/09/26 03:19:16;;;;;;;11.73;8.10;;;;;;;14.12;54.07;98454.16;5075818;28;20036;-72
2022/09/26 03:21:44;;;;;;;16.10;9.27;;;;;;;13.83;54.18;98444.75;5069821;28;20067;-71
2022/09/26 03:24:12;;;;;;;13.63;8.18;;;;;;;13.84;53.92;98448.25;5076002;28;20048;-72
2022/09/26 03:26:38;;;;;;;12.27;8.20;;;;;;;13.91;53.92;98455.22;5093293;28;20047;-72
2022/09/26 03:29:04;;;;;;;16.33;8.70;;;;;;;13.77;54.15;98447.44;5076168;28;20359;-72
2022/09/26 03:31:33;;;;;;;11.93;8.52;;;;;;;13.64;54.26;98452.78;5076708;28;20040;-74
2022/09/26 03:34:02;;;;;;;12.13;8.57;;;;;;;13.72;54.19;98448.06;5076000;28;20040;-72
2022/09/26 03:36:29;;;;;;;14.50;8.50;;;;;;;13.70;54.24;98458.09;5058536;28;20384;-71
2022/09/26 03:38:55;;;;;;;13.05;8.30;;;;;;;13.79;54.35;98453.41;5058271;28;20044;-71
2022/09/26 03:41:43;;;;;;;13.70;8.43;;;;;;;13.80;53.78;98461.19;5082335;28;20409;-72
2022/09/26 03:44:17;;;;;;;13.73;8.63;;;;;;;13.88;53.93;98460.16;5059112;28;20048;-72
2022/09/26 03:47:03;;;;;;;11.73;8.43;;;;;;;13.91;53.65;98460.56;5091047;28;20497;-71
2022/09/26 03:49:30;;;;;;;13.02;8.52;;;;;;;13.95;53.74;98459.13;5074750;28;20147;-73
2022/09/26 03:51:56;;;;;;;15.55;8.80;;;;;;;14.03;53.50;98466.91;5057742;28;20927;-74
2022/09/26 03:54:25;;;;;;;12.60;8.90;;;;;;;14.00;53.70;98472.66;5041216;28;20144;-72
2022/09/26 03:56:51;;;;;;;12.35;8.55;;;;;;;14.02;53.64;98469.78;5058060;28;20445;-74
2022/09/26 03:59:17;;;;;;;14.85;8.80;;;;;;;13.98;53.15;98474.72;5057798;28;20128;-73
2022/09/26 04:01:44;;;;;;;14.35;8.93;;;;;;;13.95;53.53;98466.28;5074204;28;20099;-73
2022/09/26 04:04:14;;;;;;;14.77;9.02;;;;;;;14.01;53.28;98473.50;5058652;28;20135;-73
2022/09/26 04:06:43;;;;;;;11.60;8.32;;;;;;;14.09;53.33;98475.91;5045379;28;20056;-73
2022/09/26 04:09:10;;;;;;;13.13;8.10;;;;;;;13.95;53.42;98455.63;5061576;28;20512;-73
2022/09/26 04:11:36;;;;;;;13.98;8.65;;;;;;;14.08;53.28;98475.13;5062410;28;20101;-72
2022/09/26 04:14:04;;;;;;;12.18;8.02;;;;;;;14.05;53.13;98472.03;5061582;28;20040;-74
2022/09/26 04:16:37;;;;;;;10.60;8.10;;;;;;;14.08;53.05;98477.78;5077589;28;20392;-73
2022/09/26 04:19:22;;;;;;;11.05;7.72;;;;;;;13.91;53.41;98468.56;5045298;28;20382;-74
2022/09/26 04:21:49;;;;;;;12.55;8.75;;;;;;;14.10;53.27;98469.56;5074912;28;20123;-71
2022/09/26 04:24:15;;;;;;;11.65;7.45;;;;;;;14.02;53.57;98472.47;5057511;28;20356;-70
2022/09/26 04:26:42;;;;;;;11.10;7.72;;;;;;;14.12;53.52;98480.84;5041409;28;20092;-73
2022/09/26 04:29:09;;;;;;;11.32;7.63;;;;;;;14.09;53.32;98474.09;5058271;28;20055;-72
2022/09/26 04:32:00;;;;;;;10.48;7.53;;;;;;;14.07;53.43;98481.47;5058978;28;20062;-72
2022/09/26 04:34:39;;;;;;;13.40;7.70;;;;;;;14.17;53.30;98476.53;5091086;28;20045;-74
2022/09/26 04:37:08;;;;;;;13.30;7.78;;;;;;;14.13;53.30;98480.63;5043376;28;20047;-72
2022/09/26 04:39:35;;;;;;;11.65;7.25;;;;;;;14.11;52.98;98481.88;5072077;28;20052;-72
2022/09/26 04:42:00;;;;;;;11.68;7.13;;;;;;;14.21;52.99;98482.25;5058752;28;20046;-73
2022/09/26 04:44:26;;;;;;;15.93;7.05;;;;;;;14.20;53.08;98480.63;5060063;28;20057;-72
2022/09/26 04:46:52;;;;;;;9.93;6.63;;;;;;;14.24;52.86;98493.38;5061943;28;20036;-73
2022/09/26 04:49:22;;;;;;;8.25;6.07;;;;;;;14.28;52.81;98488.44;5063223;28;20048;-71
2022/09/26 04:51:53;;;;;;;9.23;5.88;;;;;;;14.56;52.58;98494.34;5062239;28;20087;-71
2022/09/26 04:54:20;;;;;;;8.57;5.80;;;;;;;14.44;52.45;98496.81;5077381;28;20166;-71
2022/09/26 04:56:46;;;;;;;6.90;4.93;;;;;;;14.48;52.25;98494.56;5077518;28;20046;-72
2022/09/26 04:59:11;;;;;;;7.25;5.72;;;;;;;14.53;51.93;98498.22;5058824;28;20035;-73
2022/09/26 05:01:48;;;;;;;6.85;5.00;;;;;;;14.47;52.07;98503.59;5078238;28;20052;-73
2022/09/26 05:04:24;;;;;;;10.48;5.10;;;;;;;14.41;52.23;98507.09;5063785;28;20058;-73
2022/09/26 05:06:50;;;;;;;6.20;4.78;;;;;;;14.46;52.10;98508.13;5045599;28;20044;-73
2022/09/26 05:09:25;;;;;;;5.22;4.43;;;;;;;14.35;52.53;98506.09;5080840;28;20071;-76
2022/09/26 05:11:59;;;;;;;4.95;3.90;;;;;;;14.33;52.18;98518.03;5063875;28;20044;-72
2022/09/26 05:14:26;;;;;;;5.63;3.97;;;;;;;14.29;52.44;98514.94;5061219;28;20070;-72
2022/09/26 05:16:51;;;;;;;7.95;3.60;;;;;;;14.27;52.44;98502.84;5077936;28;20043;-75
2022/09/26 05:19:17;;;;;;;7.25;3.58;;;;;;;14.14;52.56;98484.13;5045812;28;20079;-74
2022/09/26 05:22:06;;;;;;;5.15;3.10;;;;;;;14.47;52.20;98515.09;5053047;28;20055;-74
2022/09/26 05:27:20;;;;;;;3.65;2.22;;;;;;;14.47;52.20;98516.94;5065577;28;20040;-74
2022/09/26 05:29:45;;;;;;;3.50;2.60;;;;;;;14.42;51.89;98496.22;5061850;28;20039;-75
2022/09/26 05:32:12;;;;;;;6.53;2.60;;;;;;;14.56;51.77;98523.72;5044168;28;20048;-71
2022/09/26 05:34:38;;;;;;;3.63;2.10;;;;;;;14.46;51.53;98526.00;5066263;28;20446;-75
2022/09/26 05:37:05;;;;;;;4.47;2.33;;;;;;;14.40;51.92;98524.16;5046107;28;20039;-75
2022/09/26 05:42:16;;;;;;;2.75;1.90;;;;;;;14.36;52.36;98523.75;5067254;28;20082;-74
2022/09/26 05:44:42;;;;;;;1.98;1.77;;;;;;;14.39;52.20;98531.34;5053745;28;20518;-74
2022/09/26 05:47:08;;;;;;;3.90;2.25;;;;;;;14.56;51.70;98526.41;5057526;28;20036;-75
2022/09/26 05:49:35;;;;;;;6.68;2.95;;;;;;;14.67;51.47;98529.22;5040996;28;20356;-74
2022/09/26 05:52:02;;;;;;;8.02;2.22;;;;;;;14.77;51.50;98536.81;5024497;28;20052;-74
2022/09/26 05:54:31;;;;;;;3.67;2.20;;;;;;;14.76;51.46;98532.50;5024958;28;20040;-75
2022/09/26 05:56:58;;;;;;;3.55;1.83;;;;;;;14.90;51.61;98536.75;5039666;28;20052;-71
2022/09/26 05:59:44;;;;;;;4.43;1.80;;;;;;;14.94;51.19;98535.31;5028222;28;20044;-71
2022/09/26 06:02:25;;;;;;;2.72;1.70;;;;;;;14.89;51.47;98543.97;5043400;28;20328;-70
2022/09/26 06:05:15;;;;;;;1.70;1.60;;;;;;;15.01;51.15;98531.56;5029661;28;20050;-71
2022/09/26 06:07:44;;;;;;;3.13;1.60;;;;;;;15.00;51.08;98537.13;5040519;28;20044;-76
2022/09/26 06:10:16;;;;;;;4.25;1.70;;;;;;;14.91;51.59;98533.06;5057168;28;20048;-70
2022/09/26 06:12:53;;;;;;;2.95;1.70;;;;;;;15.04;51.45;98533.81;5026590;28;20075;-70
2022/09/26 06:15:19;;;;;;;5.15;1.63;;;;;;;15.00;51.81;98531.78;5023319;28;20051;-70
2022/09/26 06:17:47;;;;;;;6.32;1.60;;;;;;;15.25;51.32;98544.19;5023293;28;20045;-70
2022/09/26 06:20:12;;;;;;;5.82;1.60;;;;;;;15.27;51.04;98547.47;5032023;28;20151;-70
2022/09/26 06:22:39;;;;;;;5.85;1.50;;;;;;;15.30;50.64;98546.22;5023855;28;20570;-70
2022/09/26 06:25:06;;;;;;;2.47;1.58;;;;;;;15.45;50.90;98554.00;5056280;28;20401;-70
2022/09/26 06:27:37;;;;;;;3.13;1.70;;;;;;;15.42;50.37;98557.94;5055666;28;20564;-71
2022/09/26 06:30:09;;;;;;;3.33;1.58;;;;;;;15.67;50.05;98561.47;5073445;28;20396;-70
2022/09/26 06:32:38;;;;;;;1.95;1.73;;;;;;;15.39;50.44;98544.16;5056385;28;20071;-70
2022/09/26 06:35:35;;;;;;;2.47;1.65;;;;;;;15.32;50.46;98560.22;5050100;28;20063;-70
2022/09/26 06:38:08;;;;;;;2.45;1.83;;;;;;;15.41;50.17;98566.19;5056811;28;20048;-70
2022/09/26 06:40:34;;;;;;;3.67;2.13;;;;;;;15.52;50.38;98560.94;5055675;28;20040;-70
2022/09/26 06:43:00;;;;;;;7.82;2.55;;;;;;;15.52;49.99;98578.84;5055593;28;20105;-70
2022/09/26 06:45:44;;;;;;;4.03;2.40;;;;;;;15.61;49.76;98569.53;5058171;28;20478;-70
2022/09/26 06:48:23;;;;;;;4.55;1.90;;;;;;;15.70;48.93;98571.72;5040603;28;20135;-70
2022/09/26 06:50:59;;;;;;;6.63;2.33;;;;;;;15.77;48.98;98566.34;5041138;28;20181;-71
2022/09/26 06:53:26;;;;;;;2.00;1.70;;;;;;;15.70;48.94;98569.06;5055945;28;20040;-70
2022/09/26 06:55:52;;;;;;;4.03;1.60;;;;;;;15.72;48.79;98564.31;5071984;28;20040;-71
2022/09/26 06:58:18;;;;;;;1.63;1.20;;;;;;;15.76;48.68;98562.03;5038670;28;20134;-70
2022/09/26 07:00:53;;;;;;;1.30;1.13;;;;;;;15.50;48.91;98573.72;5057021;28;20041;-70
2022/09/26 07:03:42;;;;;;;1.23;1.13;;;;;;;15.44;48.34;98569.22;5050324;28;20040;-70
2022/09/26 07:06:36;;;;;;;2.50;1.20;;;;;;;15.68;48.11;98555.09;5067443;28;20146;-70
2022/09/26 07:09:03;;;;;;;1.23;1.13;;;;;;;15.97;47.51;98581.22;5022497;28;20569;-70
2022/09/26 07:11:49;;;;;;;1.90;1.45;;;;;;;16.03;47.52;98572.31;5074694;28;20114;-70
2022/09/26 07:14:15;;;;;;;2.58;1.60;;;;;;;15.99;47.24;98587.19;5055711;28;20059;-70
2022/09/26 07:16:43;;;;;;;3.03;1.33;;;;;;;16.02;47.08;98591.28;5055730;28;20048;-69
2022/09/26 07:19:35;;;;;;;1.20;1.10;;;;;;;15.90;47.18;98603.75;5074415;28;20062;-72
2022/09/26 07:22:05;;;;;;;4.45;1.42;;;;;;;15.82;47.51;98593.28;5059987;28;20456;-69
2022/09/26 07:24:38;;;;;;;1.40;1.30;;;;;;;15.55;47.91;98595.31;5061591;28;20300;-70
2022/09/26 07:27:04;;;;;;;1.05;0.90;;;;;;;15.85;47.28;98608.94;5075111;28;20420;-70
2022/09/26 07:29:31;;;;;;;0.75;0.75;;;;;;;15.70;47.75;98605.72;5042125;28;20044;-69
2022/09/26 07:31:57;;;;;;;0.95;0.70;;;;;;;15.77;47.97;98598.47;5059029;28;20130;-70
2022/09/26 07:34:46;;;;;;;2.85;1.17;;;;;;;15.76;48.18;98603.00;5064270;28;20032;-70
2022/09/26 07:37:15;;;;;;;1.15;0.90;;;;;;;15.85;48.38;98609.72;5042142;28;20462;-70
2022/09/26 07:39:41;;;;;;;1.02;0.90;;;;;;;15.89;48.02;98602.91;5074629;28;20046;-70
2022/09/26 07:42:08;;;;;;;0.93;0.85;;;;;;;16.17;47.65;98616.72;5058560;28;20048;-70
2022/09/26 07:44:35;;;;;;;0.90;0.90;;;;;;;16.19;47.61;98608.47;5074886;28;20077;-70
2022/09/26 07:50:31;;;;;;;1.50;1.02;;;;;;;16.36;47.30;98628.31;5060658;28;20039;-69
2022/09/26 07:53:17;;;;;;;1.08;1.00;;;;;;;15.98;47.15;98631.06;5026290;28;20052;-70
2022/09/26 07:56:13;;;;;;;2.28;0.88;;;;;;;16.10;47.60;98621.28;4978487;28;20157;-71
2022/09/26 07:58:57;;;;;;;1.45;1.05;;;;;;;15.69;48.11;98631.66;5053141;28;20058;-70
2022/09/26 08:01:43;;;;;;;1.63;1.20;;;;;;;15.83;48.07;98630.56;5047417;28;20051;-70
2022/09/26 08:04:32;;;;;;;4.18;1.10;;;;;;;16.08;47.72;98639.44;5056397;28;20116;-70
2022/09/26 08:07:00;;;;;;;0.80;0.80;;;;;;;16.39;46.72;98631.34;5041493;28;20054;-70
2022/09/26 08:09:27;;;;;;;1.30;0.93;;;;;;;16.57;46.58;98634.13;5041357;28;20071;-70
2022/09/26 08:12:19;;;;;;;2.60;1.10;;;;;;;16.97;45.56;98631.03;5048041;28;20079;-69
2022/09/26 08:14:50;;;;;;;3.13;1.08;;;;;;;17.16;45.17;98632.69;5059538;28;20561;-69
2022/09/26 08:17:39;;;;;;;3.13;0.85;;;;;;;17.55;44.47;98653.69;5048418;28;20043;-69
2022/09/26 08:20:06;;;;;;;1.58;0.98;;;;;;;17.61;43.69;98644.75;5041233;28;20471;-70
2022/09/26 08:22:31;;;;;;;1.25;0.93;;;;;;;17.66;43.46;98664.50;5042093;28;20051;-70
2022/09/26 08:24:59;;;;;;;1.42;0.70;;;;;;;17.91;43.23;98659.00;5075182;28;20386;-71
2022/09/26 08:27:42;;;;;;;1.58;0.70;;;;;;;18.04;42.49;98656.13;5091353;28;20048;-69
2022/09/26 08:30:10;;;;;;;1.50;0.80;;;;;;;18.05;42.48;98655.88;5041635;28;20470;-70
2022/09/26 08:32:36;;;;;;;3.60;0.90;;;;;;;17.68;43.29;98650.84;5041329;28;20091;-69
2022/09/26 08:35:02;;;;;;;1.30;0.63;;;;;;;17.18;42.82;98649.38;5041152;28;20510;-69
2022/09/26 08:37:31;;;;;;;2.83;0.73;;;;;;;16.77;43.47;98655.38;5074627;28;20042;-69
2022/09/26 08:40:19;;;;;;;1.70;0.77;;;;;;;16.47;44.43;98655.25;5056034;28;20047;-70
2022/09/26 08:43:09;;;;;;;0.60;0.60;;;;;;;16.20;45.16;98661.81;5075373;28;20090;-70
2022/09/26 08:49:26;;;;;;;0.93;0.80;;;;;;;16.69;44.35;98675.25;5074205;28;20575;-70
2022/09/26 08:51:54;;;;;;;4.53;0.90;;;;;;;16.94;43.63;98671.72;5077724;28;20044;-72
2022/09/26 08:54:26;;;;;;;1.48;0.90;;;;;;;16.34;44.28;98668.72;5061781;28;20051;-70
2022/09/26 08:56:56;;;;;;;1.33;1.10;;;;;;;16.45;45.09;98664.56;5061418;28;20044;-71
2022/09/26 08:59:42;;;;;;;1.85;1.02;;;;;;;16.73;44.07;98665.72;5045176;28;20044;-71
2022/09/26 09:02:36;;;;;;;0.88;0.82;;;;;;;16.67;43.69;98680.03;5078029;28;20109;-71
2022/09/26 09:05:16;;;;;;;1.48;1.08;;;;;;;16.78;44.33;98679.31;5072459;28;20075;-71
2022/09/26 09:07:46;;;;;;;1.17;0.80;;;;;;;17.05;44.09;98684.41;5077972;28;20043;-72
2022/09/26 09:10:18;;;;;;;1.15;0.88;;;;;;;16.80;43.74;98689.81;5061203;28;20048;-70
2022/09/26 09:13:29;;;;;;;1.05;0.90;;;;;;;16.87;43.50;98692.44;5065841;28;20052;-71
2022/09/26 09:16:24;;;;;;;1.38;0.70;;;;;;;16.82;43.46;98679.69;5073075;28;20105;-70
2022/09/26 09:19:18;;;;;;;3.50;0.98;;;;;;;17.24;42.94;98704.81;5079436;28;20056;-70
2022/09/26 09:22:16;;;;;;;2.95;0.70;;;;;;;17.37;42.56;98712.75;5048131;28;20488;-71
2022/09/26 09:25:03;;;;;;;3.95;1.10;;;;;;;17.38;42.50;98704.47;5079808;28;20048;-71
2022/09/26 09:28:05;;;;;;;4.47;1.02;;;;;;;17.60;42.22;98712.91;5044615;28;20048;-70
2022/09/26 09:30:34;;;;;;;6.10;0.80;;;;;;;17.42;42.27;98720.97;5060209;28;20474;-71
2022/09/26 09:33:14;;;;;;;1.58;0.88;;;;;;;17.41;42.29;98727.34;5061660;28;20043;-74
2022/09/26 09:35:55;;;;;;;0.77;0.70;;;;;;;17.58;42.49;98712.31;5046805;28;20470;-71
2022/09/26 09:38:38;;;;;;;2.75;0.70;;;;;;;17.52;42.25;98718.59;5078810;28;20490;-70
2022/09/26 09:41:30;;;;;;;1.50;1.02;;;;;;;17.54;42.19;98721.88;5079056;28;20127;-70
2022/09/26 09:44:01;;;;;;;1.05;0.95;;;;;;;17.67;41.54;98727.91;5060793;28;20055;-73
2022/09/26 09:46:31;;;;;;;3.15;0.93;;;;;;;17.87;41.85;98717.72;5060577;28;20039;-71
2022/09/26 09:49:21;;;;;;;1.20;0.90;;;;;;;18.16;40.51;98724.97;5060872;28;20424;-72
2022/09/26 09:52:09;;;;;;;6.80;1.10;;;;;;;18.22;40.86;98728.63;5077648;28;20135;-70
2022/09/26 09:54:44;;;;;;;4.10;0.75;;;;;;;18.53;40.17;98722.22;5060290;28;20048;-71
2022/09/26 09:57:37;;;;;;;1.02;0.70;;;;;;;18.87;39.40;98740.25;5093665;28;20058;-70
2022/09/26 10:00:07;;;;;;;1.00;0.80;;;;;;;18.87;38.94;98718.72;5059956;28;20054;-72
2022/09/26 10:03:00;;;;;;;1.27;0.82;;;;;;;19.49;38.15;98740.41;5093301;28;20040;-71
2022/09/26 10:05:36;;;;;;;0.80;0.80;;;;;;;19.36;37.82;98729.03;5077683;28;20048;-71
2022/09/26 10:08:03;;;;;;;1.52;0.80;;;;;;;19.14;38.09;98731.50;5043032;28;20135;-71
2022/09/26 10:10:56;;;;;;;1.40;0.88;;;;;;;19.08;38.69;98732.41;5092891;28;20527;-71
2022/09/26 10:13:42;;;;;;;1.00;0.80;;;;;;;19.14;38.97;98714.53;5064564;28;20139;-70
2022/09/26 10:16:29;;;;;;;1.23;0.80;;;;;;;18.85;38.96;98724.34;5048287;28;20035;-71
2022/09/26 10:19:06;;;;;;;0.93;0.83;;;;;;;18.43;39.87;98722.75;5094568;28;20043;-71
2022/09/26 10:21:38;;;;;;;1.17;0.70;;;;;;;17.90;41.24;98733.41;5062656;28;20534;-70
2022/09/26 10:24:04;;;;;;;0.50;0.50;;;;;;;17.31;43.28;98713.63;5063046;28;20047;-71
2022/09/26 10:26:48;;;;;;;0.80;0.60;;;;;;;16.42;44.87;98727.41;5067310;28;20357;-70
2022/09/26 10:29:34;;;;;;;0.68;0.50;;;;;;;16.51;46.17;98720.75;5064667;28;20055;-70
2022/09/26 10:32:09;;;;;;;2.45;0.70;;;;;;;16.61;45.89;98726.47;5079046;28;20363;-71
2022/09/26 10:34:39;;;;;;;3.28;0.63;;;;;;;15.76;47.39;98694.00;5063516;28;20043;-71
2022/09/26 10:37:28;;;;;;;0.75;0.63;;;;;;;16.50;46.81;98723.66;5079256;28;20134;-71
2022/09/26 10:43:23;;;;;;;1.63;0.70;;;;;;;16.67;46.34;98728.28;5082100;28;20043;-70
2022/09/26 10:46:12;;;;;;;2.13;0.70;;;;;;;16.61;46.29;98726.47;5095939;28;20100;-70
2022/09/26 10:49:00;;;;;;;2.05;0.60;;;;;;;16.27;47.23;98729.56;5067430;28;20047;-70
2022/09/26 10:51:45;;;;;;;0.95;0.60;;;;;;;16.17;46.99;98734.59;5080558;28;20066;-70
2022/09/26 10:54:15;;;;;;;0.60;0.60;;;;;;;16.38;47.31;98736.09;5079237;28;20532;-70
2022/09/26 10:56:44;;;;;;;2.03;0.80;;;;;;;16.35;47.91;98732.00;5062290;28;20055;-70
2022/09/26 10:59:13;;;;;;;0.52;0.52;;;;;;;16.48;48.06;98729.25;5078771;28;20040;-70
2022/09/26 11:01:45;;;;;;;0.60;0.60;;;;;;;16.13;48.12;98740.59;5045336;28;20089;-75
2022/09/26 11:07:34;;;;;;;0.60;0.60;;;;;;;15.47;50.37;98740.03;5083667;28;20497;-70
2022/09/26 11:10:27;;;;;;;0.60;0.60;;;;;;;15.72;50.34;98719.59;5068688;28;20043;-72
2022/09/26 11:13:14;;;;;;;1.50;0.60;;;;;;;16.04;49.75;98737.34;5078566;28;20059;-70
2022/09/26 11:15:52;;;;;;;0.60;0.60;;;;;;;16.34;49.37;98751.81;5091261;28;20058;-73
2022/09/26 11:18:24;;;;;;;1.25;0.80;;;;;;;16.25;49.34;98737.00;5074774;28;20043;-72
2022/09/26 11:20:51;;;;;;;1.02;0.70;;;;;;;16.53;48.30;98750.03;5075659;28;20348;-70
2022/09/26 11:23:39;;;;;;;1.23;0.73;;;;;;;16.61;47.62;98745.25;5038340;28;20047;-69
2022/09/26 11:26:15;;;;;;;1.00;0.70;;;;;;;16.08;48.65;98751.13;5093190;28;20043;-68
2022/09/26 11:28:47;;;;;;;1.05;0.80;;;;;;;16.11;49.03;98753.38;5076387;28;20070;-68
2022/09/26 11:31:32;;;;;;;1.65;0.70;;;;;;;16.33;48.63;98744.78;5065059;28;20079;-68
2022/09/26 11:34:32;;;;;;;1.30;0.70;;;;;;;16.65;48.53;98751.78;5026362;28;20050;-68
2022/09/26 11:37:16;;;;;;;4.68;1.20;;;;;;;16.95;47.88;98762.69;5026674;28;20138;-70
2022/09/26 11:40:10;;;;;;;0.88;0.70;;;;;;;17.10;47.07;98757.81;5057863;28;20067;-69
2022/09/26 11:42:54;;;;;;;0.68;0.63;;;;;;;17.02;47.25;98763.44;5073449;28;20273;-69
2022/09/26 11:45:52;;;;;;;0.63;0.60;;;;;;;16.78;46.42;98759.75;5039624;28;20607;-69
2022/09/26 11:49:04;;;;;;;0.60;0.60;;;;;;;16.36;47.18;98741.66;5051237;28;20150;-69
2022/09/26 11:52:07;;;;;;;1.97;0.70;;;;;;;16.48;46.57;98768.66;5062771;28;20070;-68
2022/09/26 11:54:57;;;;;;;0.65;0.65;;;;;;;16.57;46.83;98770.03;5040928;28;20744;-69
2022/09/26 11:57:35;;;;;;;0.60;0.60;;;;;;;16.53;46.48;98742.00;5092281;28;20039;-68
2022/09/26 12:00:05;;;;;;;0.68;0.63;;;;;;;16.39;46.81;98775.28;5074620;28;20400;-68
2022/09/26 12:02:41;;;;;;;0.80;0.80;;;;;;;16.20;47.60;98784.25;5060559;28;20052;-68
2022/09/26 12:05:24;;;;;;;0.80;0.80;;;;;;;16.48;47.40;98782.03;5058104;28;20047;-68
2022/09/26 12:08:14;;;;;;;2.22;0.60;;;;;;;16.16;47.48;98775.78;5058153;28;20059;-68
2022/09/26 12:10:51;;;;;;;1.10;0.65;;;;;;;16.23;47.19;98779.28;5058168;28;20108;-69
2022/09/26 12:13:17;;;;;;;0.60;0.60;;;;;;;15.73;48.11;98784.66;5058010;28;20554;-68
2022/09/26 12:15:45;;;;;;;0.60;0.50;;;;;;;15.60;48.43;98795.41;5041025;28;20127;-68
2022/09/26 12:18:14;;;;;;;0.50;0.50;;;;;;;15.96;48.37;98787.66;5041180;28;20048;-68
2022/09/26 12:20:45;;;;;;;0.40;0.40;;;;;;;15.86;47.78;98782.75;5041319;28;20550;-68
2022/09/26 12:23:23;;;;;;;0.80;0.60;;;;;;;16.02;48.01;98798.31;5058095;28;20079;-68
2022/09/26 12:26:16;;;;;;;2.95;0.82;;;;;;;16.19;47.77;98786.09;5076016;28;20438;-68
2022/09/26 12:28:51;;;;;;;1.10;0.80;;;;;;;16.29;47.55;98788.31;5045020;28;20135;-68